createdAt,value
2018-07-22T00:02:26.749Z,97046.00
2018-07-22T00:04:56.097Z,97045.00
2018-07-22T00:07:25.311Z,97044.00
2018-07-22T00:09:54.472Z,97041.00
2018-07-22T00:12:23.660Z,97055.00
2018-07-22T00:14:52.904Z,97051.00
2018-07-22T00:17:22.109Z,97055.00
2018-07-22T00:19:51.340Z,97058.00
2018-07-22T00:22:20.557Z,97056.00
2018-07-22T00:24:49.801Z,97057.00
2018-07-22T00:27:19.005Z,97060.00
2018-07-22T00:29:48.232Z,97065.00
2018-07-22T00:32:17.452Z,97056.00
2018-07-22T00:34:46.660Z,97058.00
2018-07-22T00:37:15.837Z,97069.00
2018-07-22T00:39:45.036Z,97042.00
2018-07-22T00:42:14.288Z,97068.00
2018-07-22T00:44:43.511Z,97060.00
2018-07-22T00:47:12.712Z,97061.00
2018-07-22T00:49:41.953Z,97056.00
2018-07-22T00:52:11.162Z,97061.00
2018-07-22T00:54:40.601Z,97063.00
2018-07-22T00:57:09.782Z,97061.00
2018-07-22T00:59:39.184Z,97056.00
2018-07-22T01:02:08.417Z,97061.00
2018-07-22T01:04:37.654Z,97054.00
2018-07-22T01:07:06.925Z,97056.00
2018-07-22T01:09:36.183Z,97046.00
2018-07-22T01:12:05.422Z,97047.00
2018-07-22T01:14:34.649Z,97058.00
2018-07-22T01:17:03.846Z,97057.00
2018-07-22T01:19:33.072Z,97054.00
2018-07-22T01:22:02.281Z,97060.00
2018-07-22T01:24:31.513Z,97053.00
2018-07-22T01:27:00.737Z,97058.00
2018-07-22T01:29:29.963Z,97055.00
2018-07-22T01:31:59.163Z,97058.00
2018-07-22T01:34:28.369Z,97062.00
2018-07-22T01:36:57.570Z,97060.00
2018-07-22T01:39:26.765Z,97051.00
2018-07-22T01:41:55.973Z,97058.00
2018-07-22T01:44:25.195Z,97054.00
2018-07-22T01:46:54.426Z,97050.00
2018-07-22T01:49:23.628Z,97049.00
2018-07-22T01:51:52.895Z,97059.00
2018-07-22T01:54:22.102Z,97051.00
2018-07-22T01:56:51.420Z,97055.00
2018-07-22T01:59:20.702Z,97048.00
2018-07-22T02:01:49.913Z,97047.00
2018-07-22T02:04:19.121Z,97046.00
2018-07-22T02:06:48.326Z,97054.00
2018-07-22T02:09:17.570Z,97047.00
2018-07-22T02:11:46.804Z,97043.00
2018-07-22T02:14:16.033Z,97044.00
2018-07-22T02:16:45.395Z,97049.00
2018-07-22T02:19:14.655Z,97056.00
2018-07-22T02:21:43.881Z,97052.00
2018-07-22T02:24:13.105Z,97051.00
2018-07-22T02:26:42.303Z,97051.00
2018-07-22T02:29:11.600Z,97049.00
2018-07-22T02:31:41.055Z,97057.00
2018-07-22T02:34:10.305Z,97046.00
2018-07-22T02:36:39.839Z,97052.00
2018-07-22T02:39:11.901Z,97056.00
2018-07-22T02:41:41.231Z,97053.00
2018-07-22T02:44:10.918Z,97049.00
2018-07-22T02:46:40.148Z,97050.00
2018-07-22T02:49:09.331Z,97042.00
2018-07-22T02:51:38.651Z,97051.00
2018-07-22T02:54:07.808Z,97052.00
2018-07-22T02:56:37.015Z,97046.00
2018-07-22T02:59:06.722Z,97044.00
2018-07-22T03:01:37.759Z,97046.00
2018-07-22T03:04:08.310Z,97039.00
2018-07-22T03:06:37.552Z,97042.00
2018-07-22T03:09:09.376Z,97036.00
2018-07-22T03:11:38.664Z,97042.00
2018-07-22T03:14:08.008Z,97037.00
2018-07-22T03:16:37.251Z,97023.00
2018-07-22T03:19:06.442Z,97034.00
2018-07-22T03:21:35.665Z,97043.00
2018-07-22T03:24:04.900Z,97039.00
2018-07-22T03:26:34.112Z,97039.00
2018-07-22T03:29:03.301Z,97028.00
2018-07-22T03:31:32.504Z,97037.00
2018-07-22T03:34:01.730Z,97038.00
2018-07-22T03:36:30.967Z,97029.00
2018-07-22T03:39:00.192Z,97032.00
2018-07-22T03:41:29.380Z,97035.00
2018-07-22T03:43:58.650Z,97036.00
2018-07-22T03:46:27.844Z,97037.00
2018-07-22T03:48:57.062Z,97036.00
2018-07-22T03:51:26.235Z,97041.00
2018-07-22T03:53:55.918Z,97037.00
2018-07-22T03:56:25.156Z,97041.00
2018-07-22T03:58:54.395Z,97048.00
2018-07-22T04:01:23.613Z,97041.00
2018-07-22T04:03:53.292Z,97047.00
2018-07-22T04:06:22.476Z,97047.00
2018-07-22T04:08:51.724Z,97051.00
2018-07-22T04:11:22.485Z,97047.00
2018-07-22T04:13:51.468Z,97050.00
2018-07-22T04:16:20.691Z,97052.00
2018-07-22T04:18:52.919Z,97062.00
2018-07-22T04:21:23.770Z,97057.00
2018-07-22T04:23:53.026Z,97060.00
2018-07-22T04:26:22.595Z,97053.00
2018-07-22T04:28:52.205Z,97056.00
2018-07-22T04:31:21.704Z,97053.00
2018-07-22T04:33:50.975Z,97056.00
2018-07-22T04:36:20.175Z,97064.00
2018-07-22T04:38:49.417Z,97055.00
2018-07-22T04:41:18.621Z,97059.00
2018-07-22T04:43:47.832Z,97056.00
2018-07-22T04:46:17.104Z,97061.00
2018-07-22T04:48:46.379Z,97064.00
2018-07-22T04:51:15.836Z,97063.00
2018-07-22T04:53:45.063Z,97060.00
2018-07-22T04:56:14.268Z,97077.00
2018-07-22T04:58:43.529Z,97069.00
2018-07-22T05:01:12.781Z,97075.00
2018-07-22T05:03:41.992Z,97081.00
2018-07-22T05:06:11.282Z,97072.00
2018-07-22T05:08:40.512Z,97083.00
2018-07-22T05:11:09.702Z,97082.00
2018-07-22T05:13:38.971Z,97080.00
2018-07-22T05:16:08.172Z,97081.00
2018-07-22T05:18:37.356Z,97089.00
2018-07-22T05:21:06.586Z,97094.00
2018-07-22T05:23:35.835Z,97094.00
2018-07-22T05:26:05.276Z,97098.00
2018-07-22T05:28:34.454Z,97096.00
2018-07-22T05:31:03.729Z,97097.00
2018-07-22T05:33:32.908Z,97103.00
2018-07-22T05:36:02.117Z,97102.00
2018-07-22T05:38:31.344Z,97104.00
2018-07-22T05:41:00.553Z,97101.00
2018-07-22T05:43:29.772Z,97102.00
2018-07-22T05:45:58.998Z,97110.00
2018-07-22T05:48:28.177Z,97111.00
2018-07-22T05:50:57.383Z,97112.00
2018-07-22T05:53:26.561Z,97115.00
2018-07-22T05:55:55.817Z,97114.00
2018-07-22T05:58:24.993Z,97112.00
2018-07-22T06:00:54.287Z,97129.00
2018-07-22T06:03:23.662Z,97127.00
2018-07-22T06:05:52.889Z,97127.00
2018-07-22T06:08:22.054Z,97126.00
2018-07-22T06:10:51.411Z,97128.00
2018-07-22T06:13:20.658Z,97131.00
2018-07-22T06:15:49.886Z,97129.00
2018-07-22T06:18:19.085Z,97128.00
2018-07-22T06:20:48.342Z,97135.00
2018-07-22T06:23:17.552Z,97134.00
2018-07-22T06:25:46.831Z,97144.00
2018-07-22T06:28:16.064Z,97136.00
2018-07-22T06:30:45.278Z,97139.00
2018-07-22T06:33:14.553Z,97136.00
2018-07-22T06:35:43.804Z,97132.00
2018-07-22T06:38:13.026Z,97141.00
2018-07-22T06:40:42.280Z,97133.00
2018-07-22T06:43:11.467Z,97134.00
2018-07-22T06:45:40.701Z,97136.00
2018-07-22T06:48:09.949Z,97138.00
2018-07-22T06:50:39.160Z,97137.00
2018-07-22T06:53:08.329Z,97138.00
2018-07-22T06:55:37.624Z,97143.00
2018-07-22T06:58:06.909Z,97152.00
2018-07-22T07:00:36.109Z,97139.00
2018-07-22T07:03:06.381Z,97143.00
2018-07-22T07:05:35.351Z,97145.00
2018-07-22T07:08:04.812Z,97145.00
2018-07-22T07:10:34.044Z,97145.00
2018-07-22T07:13:03.277Z,97150.00
2018-07-22T07:15:32.473Z,97162.00
2018-07-22T07:18:01.669Z,97158.00
2018-07-22T07:20:30.874Z,97159.00
2018-07-22T07:23:00.165Z,97162.00
2018-07-22T07:25:29.335Z,97154.00
2018-07-22T07:27:58.615Z,97161.00
2018-07-22T07:30:27.809Z,97160.00
2018-07-22T07:32:57.020Z,97162.00
2018-07-22T07:35:26.236Z,97162.00
2018-07-22T07:37:55.457Z,97154.00
2018-07-22T07:40:24.679Z,97163.00
2018-07-22T07:42:54.472Z,97156.00
2018-07-22T07:45:23.687Z,97160.00
2018-07-22T07:47:52.927Z,97163.00
2018-07-22T07:50:22.165Z,97168.00
2018-07-22T07:52:51.387Z,97158.00
2018-07-22T07:55:20.580Z,97165.00
2018-07-22T07:57:49.815Z,97166.00
2018-07-22T08:00:19.034Z,97162.00
2018-07-22T08:02:48.354Z,97164.00
2018-07-22T08:05:17.547Z,97161.00
2018-07-22T08:07:46.857Z,97171.00
2018-07-22T08:10:16.097Z,97172.00
2018-07-22T08:12:45.365Z,97172.00
2018-07-22T08:15:14.611Z,97172.00
2018-07-22T08:17:43.876Z,97164.00
2018-07-22T08:20:13.101Z,97159.00
2018-07-22T08:22:42.309Z,97158.00
2018-07-22T08:25:11.572Z,97168.00
2018-07-22T08:27:40.872Z,97164.00
2018-07-22T08:30:10.078Z,97168.00
2018-07-22T08:32:39.301Z,97171.00
2018-07-22T08:35:08.502Z,97166.00
2018-07-22T08:37:37.692Z,97162.00
2018-07-22T08:40:07.406Z,97161.00
2018-07-22T08:42:36.605Z,97160.00
2018-07-22T08:45:06.863Z,97162.00
2018-07-22T08:47:36.062Z,97163.00
2018-07-22T08:50:05.565Z,97160.00
2018-07-22T08:52:34.857Z,97167.00
2018-07-22T08:55:04.071Z,97175.00
2018-07-22T08:57:33.262Z,97172.00
2018-07-22T09:00:02.490Z,97166.00
2018-07-22T09:02:31.709Z,97171.00
2018-07-22T09:05:00.960Z,97173.00
2018-07-22T09:07:30.193Z,97169.00
2018-07-22T09:09:59.460Z,97170.00
2018-07-22T09:12:28.714Z,97175.00
2018-07-22T09:14:57.999Z,97180.00
2018-07-22T09:17:27.253Z,97183.00
2018-07-22T09:19:56.563Z,97184.00
2018-07-22T09:22:25.842Z,97189.00
2018-07-22T09:24:55.690Z,97181.00
2018-07-22T09:27:24.946Z,97187.00
2018-07-22T09:29:54.197Z,97183.00
2018-07-22T09:32:23.418Z,97187.00
2018-07-22T09:34:52.812Z,97189.00
2018-07-22T09:37:22.040Z,97194.00
2018-07-22T09:39:51.260Z,97201.00
2018-07-22T09:42:21.615Z,97200.00
2018-07-22T09:44:50.886Z,97201.00
2018-07-22T09:47:20.208Z,97201.00
2018-07-22T09:49:49.550Z,97195.00
2018-07-22T09:52:18.864Z,97197.00
2018-07-22T09:54:48.164Z,97193.00
2018-07-22T09:57:17.442Z,97190.00
2018-07-22T09:59:46.699Z,97198.00
2018-07-22T10:02:15.960Z,97198.00
2018-07-22T10:04:45.397Z,97198.00
2018-07-22T10:07:14.691Z,97202.00
2018-07-22T10:09:43.942Z,97199.00
2018-07-22T10:12:13.255Z,97200.00
2018-07-22T10:14:42.565Z,97195.00
2018-07-22T10:17:11.768Z,97200.00
2018-07-22T10:19:40.977Z,97192.00
2018-07-22T10:22:10.353Z,97193.00
2018-07-22T10:24:39.644Z,97195.00
2018-07-22T10:27:08.880Z,97202.00
2018-07-22T10:29:38.184Z,97200.00
2018-07-22T10:32:07.824Z,97203.00
2018-07-22T10:34:37.093Z,97208.00
2018-07-22T10:37:06.384Z,97200.00
2018-07-22T10:39:35.688Z,97205.00
2018-07-22T10:42:04.921Z,97192.00
2018-07-22T10:44:34.218Z,97198.00
2018-07-22T10:47:03.440Z,97182.00
2018-07-22T10:49:32.671Z,97195.00
2018-07-22T10:52:01.952Z,97194.00
2018-07-22T10:54:31.148Z,97192.00
2018-07-22T10:57:00.376Z,97190.00
2018-07-22T10:59:29.628Z,97201.00
2018-07-22T11:01:58.876Z,97196.00
2018-07-22T11:04:28.114Z,97196.00
2018-07-22T11:06:57.385Z,97199.00
2018-07-22T11:09:26.999Z,97195.00
2018-07-22T11:11:56.417Z,97185.00
2018-07-22T11:14:25.820Z,97187.00
2018-07-22T11:16:55.221Z,97190.00
2018-07-22T11:19:24.550Z,97188.00
2018-07-22T11:21:53.801Z,97202.00
2018-07-22T11:24:23.236Z,97190.00
2018-07-22T11:26:52.649Z,97195.00
2018-07-22T11:29:22.008Z,97188.00
2018-07-22T11:31:51.300Z,97195.00
2018-07-22T11:34:20.680Z,97201.00
2018-07-22T11:36:49.936Z,97198.00
2018-07-22T11:39:19.277Z,97202.00
2018-07-22T11:41:48.548Z,97202.00
2018-07-22T11:44:17.907Z,97194.00
2018-07-22T11:46:47.308Z,97206.00
2018-07-22T11:49:16.591Z,97201.00
2018-07-22T11:51:45.904Z,97199.00
2018-07-22T11:54:15.237Z,97200.00
2018-07-22T11:56:44.525Z,97214.00
2018-07-22T11:59:13.869Z,97204.00
2018-07-22T12:01:43.076Z,97214.00
2018-07-22T12:04:12.412Z,97208.00
2018-07-22T12:06:41.688Z,97213.00
2018-07-22T12:09:12.328Z,97207.00
2018-07-22T12:11:41.937Z,97211.00
2018-07-22T12:14:11.142Z,97216.00
2018-07-22T12:16:40.384Z,97211.00
2018-07-22T12:19:09.639Z,97215.00
2018-07-22T12:21:38.836Z,97206.00
2018-07-22T12:24:08.231Z,97214.00
2018-07-22T12:26:37.488Z,97213.00
2018-07-22T12:29:06.962Z,97206.00
2018-07-22T12:31:36.103Z,97218.00
2018-07-22T12:34:05.373Z,97215.00
2018-07-22T12:36:34.838Z,97217.00
2018-07-22T12:39:06.494Z,97221.00
2018-07-22T12:41:35.723Z,97216.00
2018-07-22T12:44:05.123Z,97205.00
2018-07-22T12:46:34.391Z,97216.00
2018-07-22T12:49:03.695Z,97209.00
2018-07-22T12:51:32.895Z,97209.00
2018-07-22T12:54:02.203Z,97208.00
2018-07-22T12:56:31.539Z,97211.00
2018-07-22T12:59:00.840Z,97209.00
2018-07-22T13:01:30.169Z,97211.00
2018-07-22T13:03:59.461Z,97217.00
2018-07-22T13:06:28.746Z,97220.00
2018-07-22T13:08:57.986Z,97216.00
2018-07-22T13:11:27.259Z,97213.00
2018-07-22T13:13:56.522Z,97207.00
2018-07-22T13:16:25.758Z,97216.00
2018-07-22T13:18:55.124Z,97216.00
2018-07-22T13:21:24.304Z,97213.00
2018-07-22T13:23:53.639Z,97204.00
2018-07-22T13:26:22.579Z,97208.00
2018-07-22T13:28:51.924Z,97207.00
2018-07-22T13:31:21.177Z,97206.00
2018-07-22T13:33:50.416Z,97209.00
2018-07-22T13:36:19.688Z,97207.00
2018-07-22T13:38:48.884Z,97212.00
2018-07-22T13:41:18.173Z,97207.00
2018-07-22T13:43:47.502Z,97209.00
2018-07-22T13:46:17.089Z,97201.00
2018-07-22T13:48:46.316Z,97211.00
2018-07-22T13:51:15.560Z,97208.00
2018-07-22T13:53:44.765Z,97200.00
2018-07-22T13:56:14.158Z,97200.00
2018-07-22T13:58:43.381Z,97195.00
2018-07-22T14:01:12.647Z,97197.00
2018-07-22T14:03:41.915Z,97192.00
2018-07-22T14:06:11.221Z,97195.00
2018-07-22T14:08:40.425Z,97195.00
2018-07-22T14:11:09.659Z,97194.00
2018-07-22T14:13:38.884Z,97190.00
2018-07-22T14:16:08.209Z,97187.00
2018-07-22T14:18:37.558Z,97196.00
2018-07-22T14:21:06.809Z,97183.00
2018-07-22T14:23:36.264Z,97183.00
2018-07-22T14:26:06.248Z,97179.00
2018-07-22T14:28:35.631Z,97181.00
2018-07-22T14:31:05.739Z,97181.00
2018-07-22T14:33:35.059Z,97183.00
2018-07-22T14:36:04.357Z,97178.00
2018-07-22T14:38:33.582Z,97168.00
2018-07-22T14:41:03.858Z,97174.00
2018-07-22T14:43:33.085Z,97172.00
2018-07-22T14:46:02.898Z,97170.00
2018-07-22T14:48:32.145Z,97170.00
2018-07-22T14:51:02.107Z,97169.00
2018-07-22T14:53:31.407Z,97165.00
2018-07-22T14:56:00.895Z,97167.00
2018-07-22T14:58:30.399Z,97146.00
2018-07-22T15:00:59.623Z,97174.00
2018-07-22T15:03:29.493Z,97173.00
2018-07-22T15:05:58.868Z,97171.00
2018-07-22T15:08:28.163Z,97171.00
2018-07-22T15:10:57.383Z,97173.00
2018-07-22T15:13:26.677Z,97178.00
2018-07-22T15:15:56.423Z,97174.00
2018-07-22T15:18:25.717Z,97177.00
2018-07-22T15:20:55.101Z,97166.00
2018-07-22T15:23:24.460Z,97179.00
2018-07-22T15:25:54.460Z,97176.00
2018-07-22T15:28:23.684Z,97172.00
2018-07-22T15:30:53.573Z,97181.00
2018-07-22T15:33:23.018Z,97174.00
2018-07-22T15:35:52.275Z,97175.00
2018-07-22T15:38:21.537Z,97177.00
2018-07-22T15:40:50.961Z,97170.00
2018-07-22T15:43:20.269Z,97174.00
2018-07-22T15:45:49.514Z,97184.00
2018-07-22T15:48:18.816Z,97183.00
2018-07-22T15:50:48.131Z,97179.00
2018-07-22T15:53:17.617Z,97184.00
2018-07-22T15:55:47.014Z,97192.00
2018-07-22T15:58:16.413Z,97193.00
2018-07-22T16:00:45.813Z,97190.00
2018-07-22T16:03:15.091Z,97195.00
2018-07-22T16:05:44.749Z,97195.00
2018-07-22T16:08:13.945Z,97195.00
2018-07-22T16:10:43.253Z,97201.00
2018-07-22T16:13:13.192Z,97202.00
2018-07-22T16:15:42.442Z,97201.00
2018-07-22T16:18:12.178Z,97196.00
2018-07-22T16:20:41.398Z,97198.00
2018-07-22T16:23:10.683Z,97195.00
2018-07-22T16:25:40.023Z,97202.00
2018-07-22T16:28:09.380Z,97203.00
2018-07-22T16:30:38.668Z,97192.00
2018-07-22T16:33:08.046Z,97196.00
2018-07-22T16:35:37.308Z,97197.00
2018-07-22T16:38:06.635Z,97189.00
2018-07-22T16:40:36.072Z,97193.00
2018-07-22T16:43:05.319Z,97187.00
2018-07-22T16:45:34.636Z,97192.00
2018-07-22T16:48:03.846Z,97191.00
2018-07-22T16:50:33.200Z,97193.00
2018-07-22T16:53:02.521Z,97194.00
2018-07-22T16:55:31.773Z,97194.00
2018-07-22T16:58:01.137Z,97195.00
2018-07-22T17:00:30.673Z,97193.00
2018-07-22T17:02:59.864Z,97189.00
2018-07-22T17:05:29.242Z,97189.00
2018-07-22T17:07:58.478Z,97182.00
2018-07-22T17:10:27.807Z,97184.00
2018-07-22T17:12:57.275Z,97192.00
2018-07-22T17:15:26.537Z,97192.00
2018-07-22T17:17:55.880Z,97183.00
2018-07-22T17:20:25.195Z,97184.00
2018-07-22T17:22:54.660Z,97181.00
2018-07-22T17:25:24.015Z,97188.00
2018-07-22T17:27:53.436Z,97189.00
2018-07-22T17:30:22.824Z,97192.00
2018-07-22T17:32:52.225Z,97184.00
2018-07-22T17:35:21.476Z,97197.00
2018-07-22T17:37:50.925Z,97185.00
2018-07-22T17:40:20.233Z,97191.00
2018-07-22T17:42:49.615Z,97189.00
2018-07-22T17:45:19.805Z,97193.00
2018-07-22T17:47:49.080Z,97204.00
2018-07-22T17:50:18.477Z,97205.00
2018-07-22T17:52:47.787Z,97205.00
2018-07-22T17:55:17.337Z,97200.00
2018-07-22T17:57:46.762Z,97202.00
2018-07-22T18:00:16.165Z,97212.00
2018-07-22T18:02:52.602Z,97215.00
2018-07-22T18:05:21.883Z,97214.00
2018-07-22T18:07:51.164Z,97220.00
2018-07-22T18:10:20.406Z,97232.00
2018-07-22T18:12:49.649Z,97230.00
2018-07-22T18:15:18.900Z,97233.00
2018-07-22T18:17:48.112Z,97231.00
2018-07-22T18:20:17.396Z,97229.00
2018-07-22T18:22:46.596Z,97241.00
2018-07-22T18:25:15.845Z,97242.00
2018-07-22T18:27:45.070Z,97245.00
2018-07-22T18:30:14.289Z,97245.00
2018-07-22T18:32:43.517Z,97233.00
2018-07-22T18:35:12.722Z,97246.00
2018-07-22T18:37:42.992Z,97244.00
2018-07-22T18:40:12.201Z,97249.00
2018-07-22T18:42:41.492Z,97248.00
2018-07-22T18:45:10.780Z,97252.00
2018-07-22T18:50:40.207Z,97258.00
2018-07-22T18:53:09.400Z,97257.00
2018-07-22T18:55:38.652Z,97268.00
2018-07-22T18:58:07.884Z,97261.00
2018-07-22T19:03:38.981Z,97267.00
2018-07-22T19:06:07.988Z,97276.00
2018-07-22T19:11:37.263Z,97280.00
2018-07-22T19:14:06.601Z,97277.00
2018-07-22T19:16:35.872Z,97278.00
2018-07-22T19:19:05.134Z,97281.00
2018-07-22T19:21:34.393Z,97280.00
2018-07-22T19:24:03.914Z,97280.00
2018-07-22T19:26:33.350Z,97282.00
2018-07-22T19:29:02.576Z,97278.00
2018-07-22T19:31:31.813Z,97283.00
2018-07-22T19:34:20.351Z,97291.00
2018-07-22T19:36:49.622Z,97289.00
2018-07-22T19:39:18.897Z,97287.00
2018-07-22T19:41:48.142Z,97284.00
2018-07-22T19:44:17.401Z,97286.00
2018-07-22T19:46:46.679Z,97294.00
2018-07-22T19:49:15.958Z,97295.00
2018-07-22T19:51:45.208Z,97293.00
2018-07-22T19:54:14.824Z,97304.00
2018-07-22T19:56:44.334Z,97298.00
2018-07-22T19:59:13.565Z,97302.00
2018-07-22T20:01:43.437Z,97289.00
2018-07-22T20:04:14.425Z,97299.00
2018-07-22T20:06:44.449Z,97300.00
2018-07-22T20:09:14.413Z,97303.00
2018-07-22T20:11:43.997Z,97300.00
2018-07-22T20:14:13.244Z,97301.00
2018-07-22T20:16:42.419Z,97301.00
2018-07-22T20:19:11.816Z,97307.00
2018-07-22T20:21:41.177Z,97305.00
2018-07-22T20:24:10.446Z,97308.00
2018-07-22T20:26:39.897Z,97308.00
2018-07-22T20:29:09.082Z,97305.00
2018-07-22T20:31:38.321Z,97305.00
2018-07-22T20:34:07.531Z,97310.00
2018-07-22T20:36:36.728Z,97309.00
2018-07-22T20:39:09.481Z,97311.00
2018-07-22T20:41:39.538Z,97309.00
2018-07-22T20:44:08.737Z,97315.00
2018-07-22T20:46:37.936Z,97317.00
2018-07-22T20:49:07.192Z,97314.00
2018-07-22T20:51:36.420Z,97314.00
2018-07-22T20:54:05.643Z,97330.00
2018-07-22T20:56:34.931Z,97325.00
2018-07-22T20:59:04.160Z,97321.00
2018-07-22T21:01:33.353Z,97328.00
2018-07-22T21:04:02.579Z,97325.00
2018-07-22T21:06:31.812Z,97325.00
2018-07-22T21:09:00.988Z,97332.00
2018-07-22T21:11:49.510Z,97336.00
2018-07-22T21:14:18.828Z,97344.00
2018-07-22T21:16:48.054Z,97337.00
2018-07-22T21:19:17.307Z,97336.00
2018-07-22T21:21:46.550Z,97335.00
2018-07-22T21:24:15.928Z,97331.00
2018-07-22T21:26:45.385Z,97335.00
2018-07-22T21:29:14.673Z,97342.00
2018-07-22T21:31:43.889Z,97333.00
2018-07-22T21:34:13.210Z,97334.00
2018-07-22T21:36:42.451Z,97330.00
2018-07-22T21:39:11.648Z,97332.00
2018-07-22T21:41:40.937Z,97339.00
2018-07-22T21:44:10.137Z,97349.00
2018-07-22T21:46:39.395Z,97349.00
2018-07-22T21:49:08.596Z,97340.00
2018-07-22T21:51:37.931Z,97335.00
2018-07-22T21:54:07.143Z,97342.00
2018-07-22T21:56:36.351Z,97342.00
2018-07-22T21:59:05.596Z,97338.00
2018-07-22T22:01:34.826Z,97258.00
2018-07-22T22:04:04.054Z,97341.00
2018-07-22T22:06:33.263Z,97328.00
2018-07-22T22:09:02.505Z,97338.00
2018-07-22T22:11:31.708Z,97337.00
2018-07-22T22:14:00.928Z,97338.00
2018-07-22T22:16:30.156Z,97334.00
2018-07-22T22:18:59.472Z,97329.00
2018-07-22T22:21:28.823Z,97336.00
2018-07-22T22:23:58.139Z,97331.00
2018-07-22T22:26:27.348Z,97339.00
2018-07-22T22:28:56.570Z,97341.00
2018-07-22T22:31:25.811Z,97347.00
2018-07-22T22:33:55.022Z,97340.00
2018-07-22T22:36:24.227Z,97341.00
2018-07-22T22:38:53.521Z,97345.00
2018-07-22T22:41:22.807Z,97336.00
2018-07-22T22:43:52.069Z,97337.00
2018-07-22T22:46:21.301Z,97329.00
2018-07-22T22:48:50.495Z,97334.00
2018-07-22T22:51:19.823Z,97335.00
2018-07-22T22:53:49.002Z,97334.00
2018-07-22T22:56:18.296Z,97332.00
2018-07-22T22:59:04.517Z,97331.00
2018-07-22T23:01:33.724Z,97327.00
2018-07-22T23:04:02.913Z,97328.00
2018-07-22T23:06:32.220Z,97321.00
2018-07-22T23:09:01.432Z,97323.00
2018-07-22T23:11:30.649Z,97317.00
2018-07-22T23:13:59.888Z,97314.00
2018-07-22T23:16:29.100Z,97319.00
2018-07-22T23:18:58.288Z,97321.00
2018-07-22T23:21:27.478Z,97310.00
2018-07-22T23:23:57.366Z,97317.00
2018-07-22T23:26:26.578Z,97320.00
2018-07-22T23:28:55.888Z,97313.00
2018-07-22T23:31:24.983Z,97317.00
2018-07-22T23:33:54.556Z,97312.00
2018-07-22T23:36:23.815Z,97316.00
2018-07-22T23:38:53.021Z,97305.00
2018-07-22T23:41:22.377Z,97306.00
2018-07-22T23:43:51.665Z,97309.00
2018-07-22T23:46:20.925Z,97311.00
2018-07-22T23:48:50.175Z,97312.00
2018-07-22T23:51:19.368Z,97308.00
2018-07-22T23:53:48.569Z,97309.00
2018-07-22T23:56:17.797Z,97309.00
2018-07-22T23:58:47.089Z,97306.00
